• Join FlightAware (Why Join?)
  • Login
  • US Flag 
08:02PM EDT


 

Airport Tracker/Info


-or-


 

Live Flight TrackerFlight Track Log ✈ UAL582 ✈ 06-Jul-2013 ✈ KORD - KTPA

Flight Track Log - Related Links

Times and Time Zones

All times are in EDT time to prevent confusion due to time zone crossing. See the UAL582 flight status page for this flight to view local times or setup timezone preferences in your user account.

Time Position Orientation Groundspeed Altitude Reporting Facility
EDT Latitude Longitude Course Direction KTS MPH feet Rate Location/Type
09:31PM 41.9500 -87.9500 180° South 164 189 2,400  Level Chicago TRACON
09:32PM 41.7696 -87.8085 180° South  Level Estimated
09:32PM 41.9167 -87.9833 217° Southwest 199 229 3,700  Level Chicago TRACON
09:33PM 41.6636 -87.7597 180° South  Level Estimated
09:33PM 41.8167 -87.9919 184° South 254 292 7,100  Level Chicago Center
09:34PM 41.5575 -87.7110 176° South  Level Estimated
09:34PM 41.7383 -87.9769 172° South 284 327 10,200  Level Chicago Center
09:35PM 41.4515 -87.6625 180° South  Level Estimated
09:35PM 41.6603 -87.9539 168° South 286 329 13,200  Level Chicago Center
09:36PM 41.3454 -87.6141 180° South  Level Estimated
09:36PM 41.5725 -87.9444 175° South 326 375 15,200  Level Chicago Center
09:37PM 41.4653 -87.9367 177° South 375 432 17,000 3,000 Climbing Chicago Center
09:38PM 41.3486 -87.9308 178° South 405 466 21,300 3,480 Climbing Chicago Center
09:39PM 41.2419 -87.9261 178° South 388 447 24,200 2,700 Climbing Chicago Center
09:40PM 41.1358 -87.9211 178° South 384 442 26,900 1,500 Climbing Chicago Center
09:41PM 41.0267 -87.9136 177° South 388 447 27,300 660 Climbing Chicago Center
09:42PM 40.8853 -87.9058 178° South 417 480 28,300 1,020 Climbing Chicago Center
09:43PM 40.7642 -87.8733 169° South 444 511 29,400 1,380 Climbing Chicago Center
09:44PM 40.6442 -87.8406 168° South 444 511 31,200 1,800 Climbing Chicago Center
09:45PM 40.5319 -87.8081 168° South 426 490 33,100 1,320 Climbing Chicago Center
09:46PM 40.4200 -87.7781 168° South 415 478 33,900 780 Climbing Chicago Center
09:47PM 40.3064 -87.7475 168° South 416 479 34,800 960 Climbing Chicago Center
09:48PM 40.1933 -87.7158 168° South 420 483 35,900 900 Climbing Chicago Center
09:49PM 40.1003 -87.6933 170° South 414 476 36,500 600 Climbing Indianapolis Center
09:50PM 39.9864 -87.6636 169° South 419 482 37,000 240 Climbing Indianapolis Center
09:51PM 39.8725 -87.6333 168° South 421 484 37,000  Level Indianapolis Center
09:52PM 39.7578 -87.6017 168° South 422 486 37,000  Level Indianapolis Center
09:53PM 39.6428 -87.5719 169° South 424 488 37,000  Level Indianapolis Center
09:54PM 39.5067 -87.5353 168° South 421 484 37,000  Level Indianapolis Center
09:55PM 39.3953 -87.5058 168° South 416 479 37,000 -60 Level Indianapolis Center
09:56PM 39.2850 -87.4761 168° South 408 470 36,900  Descending Indianapolis Center
09:57PM 39.1717 -87.4481 169° South 414 476 37,000  Climbing Indianapolis Center
09:58PM 39.0519 -87.4167 168° South 426 490 37,000  Level Indianapolis Center
09:59PM 38.9347 -87.3861 169° South 428 493 37,100  Climbing Indianapolis Center
10:00PM 38.8169 -87.3544 168° South 430 495 37,000 -60 Descending Indianapolis Center
10:01PM 38.6983 -87.3233 168° South 433 498 37,000 60 Level Indianapolis Center
10:02PM 38.5822 -87.2944 169° South 427 491 37,200 360 Climbing Indianapolis Center
10:03PM 38.4661 -87.2650 169° South 427 491 37,800 540 Climbing Indianapolis Center
10:04PM 38.3500 -87.2381 170° South 430 495 38,400 480 Climbing Indianapolis Center
10:05PM 38.2156 -87.1994 167° South 433 498 38,800 240 Climbing Indianapolis Center
10:06PM 38.0953 -87.1703 169° South 430 495 39,000 60 Climbing Indianapolis Center
10:07PM 37.9792 -87.1403 168° South 427 491 39,000  Level Indianapolis Center
10:08PM 37.8614 -87.1094 168° South 431 496 39,000  Level Indianapolis Center
10:09PM 37.7425 -87.0800 169° South 434 499 39,000  Level Indianapolis Center
10:10PM 37.6222 -87.0483 168° South 439 505 39,000  Level Indianapolis Center
10:11PM 37.5017 -87.0222 170° South 432 497 39,000  Level Indianapolis Center
10:12PM 37.3867 -86.9936 169° South 418 481 39,000  Level Indianapolis Center
10:13PM 37.2717 -86.9644 169° South 417 480 39,000 -60 Level Indianapolis Center
10:14PM 37.1597 -86.9356 168° South 408 470 38,900  Descending Indianapolis Center
10:15PM 37.0631 -86.9097 168° South 407 468 39,000  Climbing Memphis Center
10:16PM 36.9561 -86.8858 170° South 407 468 39,000  Level Memphis Center
10:17PM 36.8450 -86.8569 168° South 407 468 39,000  Level Memphis Center
10:18PM 36.7358 -86.8281 168° South 402 463 39,000  Level Memphis Center
10:19PM 36.6244 -86.8019 169° South 402 463 39,000  Level Memphis Center
10:20PM 36.5236 -86.7756 168° South 414 476 39,000  Level Memphis Center
10:21PM 36.4039 -86.7447 168° South 428 493 39,000  Level Memphis Center
10:22PM 36.2739 -86.7144 169° South 439 505 39,000  Level Memphis Center
10:23PM 36.1586 -86.6886 170° South 432 497 39,000  Level Memphis Center
10:24PM 36.0486 -86.6422 161° South 418 481 39,000  Level Memphis Center
10:25PM 35.9408 -86.5881 158° South 424 488 39,000  Level Memphis Center
10:26PM 35.8306 -86.5344 158° South 424 488 39,000  Level Memphis Center
10:29PM 35.5786 -86.4108 158° South 424 488 39,000  Level Atlanta Center
10:30PM 35.4731 -86.3594 158° South 418 481 39,000  Level Atlanta Center
10:31PM 35.3678 -86.3106 159° South 412 474 39,000  Level Atlanta Center
10:32PM 35.2581 -86.2567 158° South 412 474 39,000  Level Atlanta Center
10:33PM 35.1444 -86.1953 156° South 412 474 39,000  Level Atlanta Center
10:34PM 35.0325 -86.1442 159° South 412 474 39,000  Level Atlanta Center
10:35PM 34.9208 -86.0931 159° South 419 482 39,000  Level Atlanta Center
10:36PM 34.8111 -86.0322 156° South 430 495 39,000  Level Atlanta Center
10:37PM 34.6994 -85.9792 159° South 430 495 39,000  Level Atlanta Center
10:38PM 34.5875 -85.9236 158° South 430 495 39,000  Level Atlanta Center
10:39PM 34.4756 -85.8706 159° South 430 495 39,000  Level Atlanta Center
10:40PM 34.3639 -85.8153 158° South 430 495 39,000  Level Atlanta Center
10:41PM 34.2619 -85.7756 162° South 430 495 39,000  Level Atlanta Center
10:42PM 34.1522 -85.7206 157° South 430 495 39,000  Level Atlanta Center
10:43PM 34.0361 -85.6681 159° South 435 501 39,000  Level Atlanta Center
10:44PM 33.9219 -85.6183 160° South 435 501 39,000  Level Atlanta Center
10:45PM 33.8100 -85.5639 158° South 435 501 39,000  Level Atlanta Center
10:46PM 33.6833 -85.5042 159° South 442 509 39,000  Level Atlanta Center
10:47PM 33.5669 -85.4525 160° South 442 509 39,000  Level Atlanta Center
10:48PM 33.4508 -85.3981 159° South 448 516 39,000  Level Atlanta Center
10:49PM 33.3344 -85.3417 158° South 443 510 39,000  Level Atlanta Center
10:50PM 33.2181 -85.2878 159° South 455 524 39,000  Level Atlanta Center
10:51PM 33.0997 -85.2342 159° South 455 524 39,000  Level Atlanta Center
10:52PM 32.9811 -85.1781 158° South 455 524 39,000  Level Atlanta Center
10:53PM 32.8583 -85.1467 168° South 449 517 39,000  Level Atlanta Center
10:54PM 32.7419 -85.0983 161° South 454 522 39,000  Level Atlanta Center
10:55PM 32.6211 -85.0575 164° South 457 526 39,000  Level Atlanta Center
10:56PM 32.4922 -85.0142 164° South 458 527 39,000  Level Atlanta Center
10:57PM 32.3692 -84.9708 163° South 458 527 39,000  Level Atlanta Center
10:58PM 32.2694 -84.9378 164° South 458 527 39,000  Level Atlanta Center
10:59PM 32.1339 -84.8997 167° South 458 527 39,000  Level Atlanta Center
11:00PM 32.0089 -84.8594 165° South 458 527 39,000  Level Atlanta Center
11:01PM 31.8861 -84.8167 164° South 458 527 39,000  Level Atlanta Center
11:02PM 31.6894 -84.7481 163° South 486 559 39,000  Level Jacksonville Center
11:03PM 31.5669 -84.7067 164° South 474 545 39,000  Level Jacksonville Center
11:04PM 31.4400 -84.6653 164° South 474 545 39,000  Level Jacksonville Center
11:05PM 31.3153 -84.6239 164° South 469 540 39,000  Level Jacksonville Center
11:06PM 31.1886 -84.5828 164° South 469 540 39,000  Level Jacksonville Center
11:07PM 31.0706 -84.5175 155° Southeast 475 547 39,000  Level Jacksonville Center
11:08PM 30.9544 -84.4478 153° Southeast 475 547 39,000  Level Jacksonville Center
11:09PM 30.8361 -84.3806 154° Southeast 475 547 39,000  Level Jacksonville Center
11:10PM 30.7158 -84.3086 153° Southeast 475 547 39,000  Level Jacksonville Center
11:11PM 30.5997 -84.2417 154° Southeast 475 547 39,000 -60 Level Jacksonville Center
11:12PM 30.4897 -84.1750 152° Southeast 460 529 38,900 -60 Descending Jacksonville Center
11:13PM 30.3714 -84.1083 154° Southeast 460 529 38,900  Level Jacksonville Center
11:14PM 30.2508 -84.0394 154° Southeast 465 535 39,000  Climbing Jacksonville Center
11:15PM 30.1325 -83.9708 153° Southeast 465 535 39,000 -60 Level Jacksonville Center
11:16PM 30.0142 -83.9047 154° Southeast 465 535 38,900 -60 Descending Jacksonville Center
11:17PM 29.8997 -83.8389 153° Southeast 465 535 38,900 -180 Level Jacksonville Center
11:18PM 29.7769 -83.7683 153° Southeast 465 535 38,600 -600 Descending Jacksonville Center
11:19PM 29.6586 -83.7028 154° Southeast 465 535 37,700 -1,140 Descending Jacksonville Center
11:20PM 29.5503 -83.6278 149° Southeast 465 535 36,400 -2,040 Descending Jacksonville Center
11:21PM 29.4444 -83.5389 144° Southeast 465 535 33,700 -3,180 Descending Jacksonville Center
11:22PM 29.3342 -83.4453 143° Southeast 482 555 30,100 -3,660 Descending Jacksonville Center
11:23PM 29.2156 -83.3469 144° Southeast 482 555 26,400 -3,060 Descending Jacksonville Center
11:24PM 29.1136 -83.2611 144° Southeast 475 547 24,000 -2,400 Descending Jacksonville Center
11:25PM 29.0178 -83.1800 143° Southeast 451 519 21,600 -2,400 Descending Jacksonville Center
11:26PM 28.9261 -83.1014 143° Southeast 430 495 19,300 -2,100 Descending Jacksonville Center
11:27PM 28.8469 -83.0158 137° Southeast 413 475 17,400 -2,040 Descending Jacksonville Center
11:29PM 28.7500 -82.8667 127° Southeast 366 421 14,100 -1,860 Descending Tampa TRACON
11:30PM 28.6833 -82.8000 139° Southeast 345 397 12,600 -1,200 Descending Tampa TRACON
11:31PM 28.6000 -82.7333 145° Southeast 312 359 11,800 -1,500 Descending Tampa TRACON
11:32PM 28.5333 -82.7000 156° South 292 336 9,700 -2,160 Descending Tampa TRACON
11:33PM 28.4667 -82.6667 156° South 282 325 7,500 -1,380 Descending Tampa TRACON
11:34PM 28.3833 -82.6333 161° South 274 315 7,000 -300 Descending Tampa TRACON
11:35PM 28.3167 -82.6000 156° South 273 314 7,000 -660 Level Tampa TRACON
11:36PM 28.2500 -82.5667 156° South 272 313 5,700 -1,740 Descending Tampa TRACON
11:37PM 28.1833 -82.5500 168° South 262 302 3,600 -1,560 Descending Tampa TRACON
11:38PM 28.1167 -82.5167 156° South 228 262 2,600 -1,020 Descending Tampa TRACON